Time;durP1;ratioP1;P1;durP2;ratioP2;P2;SDS_P1;SDS_P2;PMS_P1;PMS_P2;Temp;Humidity;BMP_temperature;BMP_pressure;BME280_temperature;BME280_humidity;BME280_pressure;Samples;Min_cycle;Max_cycle;Signal;HPM_P1;HPM_P2
2024/04/20 00:02:53;;;;;;;1999.90;999.90;;;;;;;5.72;100.00;101486.19;11286416;26;20006;-65
2024/04/20 00:07:55;;;;;;;1999.90;999.90;;;;;;;5.57;100.00;101487.44;11254696;26;20038;-64
2024/04/20 00:12:58;;;;;;;1999.90;999.90;;;;;;;5.74;100.00;101489.59;11285724;26;20031;-66
2024/04/20 00:18:00;;;;;;;1999.90;999.90;;;;;;;5.59;100.00;101490.00;11254175;26;20071;-65
2024/04/20 00:23:03;;;;;;;1999.90;999.90;;;;;;;5.62;100.00;101496.88;11285858;26;20071;-64
2024/04/20 00:28:06;;;;;;;1999.90;999.90;;;;;;;5.67;100.00;101502.81;11285221;26;20377;-65
2024/04/20 00:33:08;;;;;;;1999.90;999.90;;;;;;;5.56;100.00;101508.25;11253669;26;19999;-64
2024/04/20 00:38:11;;;;;;;1999.90;999.90;;;;;;;5.45;100.00;101511.13;11253741;26;20450;-65
2024/04/20 00:43:17;;;;;;;1999.90;999.90;;;;;;;5.45;100.00;101507.69;11285032;26;20013;-64
2024/04/20 00:48:21;;;;;;;1999.90;999.90;;;;;;;5.46;100.00;101523.19;11284626;26;20003;-64
2024/04/20 00:53:25;;;;;;;1999.90;999.90;;;;;;;5.44;100.00;101518.94;11253199;26;20038;-64
2024/04/20 00:58:29;;;;;;;1999.90;999.90;;;;;;;5.44;100.00;101530.19;11252913;26;20027;-65
2024/04/20 01:03:32;;;;;;;1999.90;999.90;;;;;;;5.52;100.00;101535.22;11253102;26;20482;-64
2024/04/20 01:08:34;;;;;;;1999.90;999.90;;;;;;;5.51;100.00;101542.13;11223580;26;20327;-65
2024/04/20 01:13:37;;;;;;;1999.90;999.90;;;;;;;5.61;100.00;101542.75;11252612;26;20014;-65
2024/04/20 01:18:39;;;;;;;1999.90;999.90;;;;;;;5.43;100.00;101546.69;11252823;26;19999;-64
2024/04/20 01:23:44;;;;;;;1999.90;999.90;;;;;;;5.36;100.00;101550.28;11251950;26;20075;-64
2024/04/20 01:28:46;;;;;;;1999.90;999.90;;;;;;;5.32;100.00;101556.47;11251981;26;19999;-65
2024/04/20 01:33:49;;;;;;;1999.90;999.90;;;;;;;5.55;100.00;101561.13;11283294;26;20450;-64
2024/04/20 01:38:54;;;;;;;1999.90;999.90;;;;;;;5.38;100.00;101564.97;11283404;26;20446;-64
2024/04/20 01:43:56;;;;;;;1999.90;999.90;;;;;;;5.38;100.00;101566.72;11252352;26;19999;-64
2024/04/20 01:49:02;;;;;;;1999.90;999.90;;;;;;;5.21;100.00;101570.53;11282576;26;19999;-64
2024/04/20 01:54:06;;;;;;;1999.90;999.90;;;;;;;5.18;100.00;101569.75;11252113;26;20013;-64
2024/04/20 01:59:08;;;;;;;1999.90;999.90;;;;;;;5.16;100.00;101582.78;11282688;26;20072;-64
2024/04/20 02:04:11;;;;;;;1999.90;999.90;;;;;;;5.40;100.00;101590.91;11282775;26;20467;-65
2024/04/20 02:09:14;;;;;;;1999.90;999.90;;;;;;;5.13;100.00;101597.56;11282041;26;20338;-64
2024/04/20 02:14:17;;;;;;;1999.90;999.90;;;;;;;5.20;100.00;101599.97;11257364;26;20014;-65
2024/04/20 02:19:20;;;;;;;1999.90;999.90;;;;;;;5.30;100.00;101610.16;11257974;26;20003;-65
2024/04/20 02:24:22;;;;;;;1999.90;999.90;;;;;;;5.28;100.00;101612.81;11289236;26;20092;-64
2024/04/20 02:29:25;;;;;;;1999.90;999.90;;;;;;;5.24;100.00;101620.69;11288959;26;20450;-64
2024/04/20 02:34:27;;;;;;;1999.90;999.90;;;;;;;5.11;100.00;101627.88;11257716;26;19998;-64
2024/04/20 02:39:29;;;;;;;1999.90;999.90;;;;;;;5.11;100.00;101643.44;11257431;26;20454;-64
2024/04/20 02:44:32;;;;;;;1999.90;999.90;;;;;;;5.07;100.00;101641.81;11288753;26;20352;-64
2024/04/20 02:49:35;;;;;;;1999.90;999.90;;;;;;;5.00;100.00;101641.09;11288309;26;19999;-64
2024/04/20 02:54:37;;;;;;;1999.90;999.90;;;;;;;5.07;100.00;101641.81;11256943;26;19999;-65
2024/04/20 02:59:40;;;;;;;1999.90;999.90;;;;;;;4.88;100.00;101641.34;11256555;26;20007;-64
2024/04/20 03:04:42;;;;;;;1999.90;999.90;;;;;;;4.97;100.00;101647.19;11288519;26;20337;-64
2024/04/20 03:09:45;;;;;;;1999.90;999.90;;;;;;;5.03;100.00;101656.59;11256272;26;20005;-64
2024/04/20 03:14:50;;;;;;;1999.90;999.90;;;;;;;5.00;100.00;101657.50;11256497;26;20007;-64
2024/04/20 03:19:53;;;;;;;1999.90;999.90;;;;;;;4.98;100.00;101676.59;11287615;26;20034;-64
2024/04/20 03:24:56;;;;;;;1999.90;999.90;;;;;;;5.07;100.00;101671.22;11254616;26;20078;-63
2024/04/20 03:29:58;;;;;;;1999.90;999.90;;;;;;;5.14;100.00;101671.94;11287443;26;20127;-64
2024/04/20 03:35:01;;;;;;;1999.90;999.90;;;;;;;5.07;100.00;101675.56;11256030;26;20035;-64
2024/04/20 03:40:03;;;;;;;1999.90;999.90;;;;;;;4.87;100.00;101675.94;11255946;26;20003;-65
2024/04/20 03:45:06;;;;;;;1999.90;999.90;;;;;;;4.87;100.00;101678.56;11286800;26;20007;-64
2024/04/20 03:50:09;;;;;;;1999.90;999.90;;;;;;;4.93;100.00;101684.47;11287538;26;20047;-65
2024/04/20 03:55:12;;;;;;;1999.90;999.90;;;;;;;5.15;100.00;101690.09;11286989;26;19999;-64
2024/04/20 04:00:15;;;;;;;1999.90;999.90;;;;;;;5.08;100.00;101696.28;11286598;26;20048;-64
2024/04/20 04:05:17;;;;;;;1999.90;999.90;;;;;;;4.94;100.00;101696.56;11286146;26;20010;-65
2024/04/20 04:10:20;;;;;;;1999.90;999.90;;;;;;;4.97;100.00;101703.44;11254288;26;19999;-64
2024/04/20 04:15:22;;;;;;;1999.90;999.90;;;;;;;5.09;100.00;101710.13;11254365;26;19999;-65
2024/04/20 04:20:25;;;;;;;1999.90;999.90;;;;;;;4.90;100.00;101726.06;11285354;26;19999;-64
2024/04/20 04:25:30;;;;;;;1999.90;999.90;;;;;;;5.02;100.00;101732.75;11254171;26;19999;-64
2024/04/20 04:30:33;;;;;;;1999.90;999.90;;;;;;;5.14;100.00;101740.28;11254147;26;20342;-65
2024/04/20 04:35:36;;;;;;;1999.90;999.90;;;;;;;5.13;100.00;101740.34;11253523;26;20342;-65
2024/04/20 04:40:38;;;;;;;1999.90;999.90;;;;;;;5.04;100.00;101746.53;11285253;26;20005;-64
2024/04/20 04:45:41;;;;;;;1999.90;999.90;;;;;;;5.07;100.00;101753.44;11254306;26;20013;-64
2024/04/20 04:50:46;;;;;;;1999.90;999.90;;;;;;;5.10;100.00;101766.34;11284758;26;19999;-64
2024/04/20 04:55:49;;;;;;;1999.90;999.90;;;;;;;5.15;100.00;101780.94;11253082;26;20014;-64
2024/04/20 05:00:51;;;;;;;1999.90;999.90;;;;;;;4.83;100.00;101785.00;11253145;26;19999;-64
2024/04/20 05:05:54;;;;;;;1999.90;999.90;;;;;;;5.19;100.00;101792.13;11253116;26;20458;-64
2024/04/20 05:10:56;;;;;;;1999.90;999.90;;;;;;;5.26;100.00;101804.13;11283930;26;19999;-64
2024/04/20 05:15:59;;;;;;;1999.90;999.90;;;;;;;5.11;100.00;101809.59;11252800;26;20469;-64
2024/04/20 05:21:01;;;;;;;1999.90;999.90;;;;;;;5.08;100.00;101807.91;11252339;26;20372;-64
2024/04/20 05:26:04;;;;;;;1999.90;999.90;;;;;;;5.11;100.00;101809.59;11283439;26;20009;-64
2024/04/20 05:31:06;;;;;;;1999.90;999.90;;;;;;;4.90;100.00;101827.25;11252442;26;20013;-64
2024/04/20 05:36:09;;;;;;;1999.90;999.90;;;;;;;5.21;100.00;101840.56;11252145;26;20011;-64
2024/04/20 05:41:11;;;;;;;1999.90;999.90;;;;;;;5.07;100.00;101836.50;11252325;26;20013;-64
2024/04/20 05:46:14;;;;;;;1999.90;999.90;;;;;;;5.09;100.00;101825.19;11284240;26;19999;-64
2024/04/20 05:51:16;;;;;;;1999.90;999.90;;;;;;;5.42;100.00;101843.63;11258900;26;20013;-64
2024/04/20 05:56:19;;;;;;;1999.90;999.90;;;;;;;5.26;100.00;101845.69;11290020;26;20450;-64
2024/04/20 06:01:23;;;;;;;1999.90;999.90;;;;;;;5.28;100.00;101856.00;11290153;26;20442;-64
2024/04/20 06:06:26;;;;;;;1999.90;999.90;;;;;;;5.44;100.00;101854.84;11259427;26;19999;-64
2024/04/20 06:11:28;;;;;;;1999.90;999.90;;;;;;;5.34;100.00;101861.94;11290370;26;20070;-63
2024/04/20 06:16:31;;;;;;;1999.90;999.90;;;;;;;5.36;100.00;101865.41;11289790;26;19999;-64
2024/04/20 06:21:33;;;;;;;1999.90;999.90;;;;;;;5.55;100.00;101859.84;11289555;26;19999;-64
2024/04/20 06:26:36;;;;;;;1999.90;999.90;;;;;;;5.47;100.00;101880.75;11288970;26;20079;-64
2024/04/20 06:31:38;;;;;;;1999.90;999.90;;;;;;;5.69;100.00;101882.97;11289019;26;20013;-64
2024/04/20 06:36:41;;;;;;;1999.90;999.90;;;;;;;5.85;100.00;101884.38;11257739;26;20003;-64
2024/04/20 06:41:43;;;;;;;1999.90;999.90;;;;;;;5.99;100.00;101896.25;11257578;26;19999;-64
2024/04/20 06:46:46;;;;;;;1999.90;999.90;;;;;;;6.33;100.00;101902.44;11256277;26;20331;-64
2024/04/20 06:51:49;;;;;;;1999.90;999.90;;;;;;;6.40;100.00;101910.13;11288726;26;20003;-64
2024/04/20 06:56:51;;;;;;;1999.90;999.90;;;;;;;6.39;100.00;101906.66;11288224;26;20007;-64
2024/04/20 07:01:54;;;;;;;1999.90;999.90;;;;;;;6.38;100.00;101917.09;11288620;26;20337;-64
2024/04/20 07:06:56;;;;;;;1999.90;999.90;;;;;;;6.40;100.00;101923.13;11288197;26;19999;-64
2024/04/20 07:11:59;;;;;;;1999.90;999.90;;;;;;;6.44;100.00;101938.63;11288454;26;20006;-64
2024/04/20 07:17:02;;;;;;;1999.90;999.90;;;;;;;6.40;100.00;101938.72;11256676;26;20450;-64
2024/04/20 07:22:05;;;;;;;1999.90;999.90;;;;;;;6.37;100.00;101946.59;11287889;26;20009;-64
2024/04/20 07:27:07;;;;;;;1999.90;999.90;;;;;;;6.50;100.00;101961.91;11256595;26;20014;-64
2024/04/20 07:32:10;;;;;;;1999.90;999.90;;;;;;;6.64;100.00;101966.81;11287414;26;20067;-64
2024/04/20 07:37:12;;;;;;;1999.90;999.90;;;;;;;7.34;100.00;101966.03;11286943;26;19999;-64
2024/04/20 07:42:15;;;;;;;1999.90;999.90;;;;;;;6.95;100.00;101978.28;11286560;26;19999;-64
2024/04/20 07:47:17;;;;;;;1999.90;999.90;;;;;;;6.90;100.00;101967.13;11255076;26;20013;-71
2024/04/20 07:52:20;;;;;;;1999.90;999.90;;;;;;;7.89;100.00;101974.16;11286931;26;20030;-71
2024/04/20 07:57:22;;;;;;;1999.90;999.90;;;;;;;8.03;100.00;101968.56;11255307;26;20014;-72
2024/04/20 08:02:27;;;;;;;1999.90;999.90;;;;;;;7.81;100.00;101979.56;11286467;26;20465;-72
2024/04/20 08:07:30;;;;;;;1999.90;999.90;;;;;;;8.15;100.00;101983.00;11286669;26;20002;-67
2024/04/20 08:12:32;;;;;;;1999.90;999.90;;;;;;;8.06;100.00;101984.13;11253922;26;20442;-68
2024/04/20 08:17:35;;;;;;;1999.90;999.90;;;;;;;8.95;100.00;101991.09;11286026;26;20527;-66
2024/04/20 08:22:38;;;;;;;1999.90;999.90;;;;;;;8.62;98.19;101998.22;11296136;20;20007;-66
2024/04/20 08:27:40;;;;;;;1999.90;999.90;;;;;;;7.73;100.00;102015.44;11360879;26;20006;-66
2024/04/20 08:32:43;;;;;;;1999.90;999.90;;;;;;;8.03;100.00;102018.09;11360601;26;20061;-66
2024/04/20 08:37:46;;;;;;;1999.90;999.90;;;;;;;8.05;100.00;102008.47;11360489;26;20078;-67
2024/04/20 08:42:51;;;;;;;1999.90;999.90;;;;;;;8.83;100.00;102026.28;11360578;26;20009;-67
2024/04/20 08:47:54;;;;;;;1999.90;999.90;;;;;;;8.78;93.65;102029.97;11328670;26;20005;-67
2024/04/20 08:53:01;;;;;;;1999.90;999.90;;;;;;;9.32;95.40;102042.19;11328304;26;20517;-67
2024/04/20 08:58:04;;;;;;;1999.90;999.90;;;;;;;8.97;92.77;102049.38;11359986;26;20131;-67
2024/04/20 09:03:07;;;;;;;1999.90;999.90;;;;;;;9.18;90.65;102050.47;11328292;26;19998;-67
2024/04/20 09:08:10;;;;;;;1999.90;999.90;;;;;;;8.77;94.32;102068.25;11359489;26;20349;-67
2024/04/20 09:13:15;;;;;;;1999.90;999.90;;;;;;;7.81;100.00;102081.25;11327864;26;20352;-67
2024/04/20 09:18:17;;;;;;;1999.90;999.90;;;;;;;7.90;100.00;102084.53;11359590;26;20075;-67
2024/04/20 09:23:23;;;;;;;1999.90;999.90;;;;;;;8.16;100.00;102081.25;11325255;26;19998;-67
2024/04/20 09:28:29;;;;;;;1999.90;999.90;;;;;;;8.46;100.00;102078.75;11366055;26;20524;-67
2024/04/20 09:33:31;;;;;;;1999.90;999.90;;;;;;;8.70;98.84;102062.34;11365412;26;20012;-67
2024/04/20 09:38:34;;;;;;;1999.90;999.90;;;;;;;8.30;100.00;102078.25;11410383;26;20034;-67
2024/04/20 09:43:41;;;;;;;1999.90;999.90;;;;;;;9.82;100.00;102076.28;11410013;26;20410;-67
2024/04/20 09:48:45;;;;;;;1999.90;999.90;;;;;;;10.08;87.03;102068.44;11409224;26;19997;-67
2024/04/20 09:53:54;;;;;;;1999.90;999.90;;;;;;;11.21;80.08;102059.88;11409424;26;20452;-67
2024/04/20 09:59:00;;;;;;;1999.90;999.90;;;;;;;11.37;80.05;102066.22;11409832;26;20017;-67
2024/04/20 10:04:03;;;;;;;1999.90;999.90;;;;;;;9.70;87.98;102083.66;11410248;26;19997;-67
2024/04/20 10:09:07;;;;;;;1999.90;999.90;;;;;;;9.92;86.99;102074.19;11409183;26;19998;-67
2024/04/20 10:14:10;;;;;;;1999.90;999.90;;;;;;;9.01;87.38;102071.91;11441672;26;20006;-67
2024/04/20 10:19:17;;;;;;;1999.90;999.90;;;;;;;10.12;83.38;102070.91;11409814;26;20432;-67
2024/04/20 10:24:20;;;;;;;1999.90;999.90;;;;;;;12.66;79.95;102056.34;11410325;26;20002;-67
2024/04/20 10:29:23;;;;;;;1999.90;999.90;;;;;;;12.34;75.83;102050.78;11408795;26;19998;-68
2024/04/20 10:34:26;;;;;;;1999.90;999.90;;;;;;;12.57;73.81;102047.13;11440513;26;20445;-68
2024/04/20 10:39:30;;;;;;;1999.90;999.90;;;;;;;12.39;73.05;102044.41;11408764;26;20001;-68
2024/04/20 10:44:32;;;;;;;1999.90;999.90;;;;;;;11.71;73.86;102055.19;11408700;26;19993;-70
2024/04/20 10:49:41;;;;;;;1999.90;999.90;;;;;;;15.35;69.82;102049.56;11440198;26;19998;-67
2024/04/20 10:54:43;;;;;;;1999.90;999.90;;;;;;;12.52;69.12;102049.09;11377697;26;19997;-68
2024/04/20 10:59:47;;;;;;;1999.90;999.90;;;;;;;12.51;72.12;102069.28;11439968;26;20509;-68
2024/04/20 11:04:49;;;;;;;1999.90;999.90;;;;;;;10.01;89.38;102097.41;11376982;26;20071;-68
2024/04/20 11:09:52;;;;;;;1999.90;999.90;;;;;;;9.88;96.25;102088.28;11439402;26;20069;-67
2024/04/20 11:15:01;;;;;;;1999.90;999.90;;;;;;;9.64;100.00;102084.72;11439404;26;20066;-67
2024/04/20 11:20:04;;;;;;;1999.90;999.90;;;;;;;11.68;96.76;102065.84;11439059;26;19997;-67
2024/04/20 11:25:10;;;;;;;1999.90;999.90;;;;;;;11.67;87.25;102058.03;11439003;26;20325;-67
2024/04/20 11:30:13;;;;;;;1999.90;999.90;;;;;;;11.19;89.01;102065.19;11407159;26;20513;-68
2024/04/20 11:35:16;;;;;;;1999.90;999.90;;;;;;;12.48;85.11;102053.66;11406874;26;19997;-67
2024/04/20 11:40:19;;;;;;;1999.90;999.90;;;;;;;14.23;73.15;102048.66;11438762;26;20336;-67
2024/04/20 11:45:21;;;;;;;1999.90;999.90;;;;;;;12.84;72.34;102044.97;11437435;26;20001;-66
2024/04/20 11:50:24;;;;;;;1999.90;999.90;;;;;;;13.77;70.00;102054.53;11438337;26;19998;-67
2024/04/20 11:55:27;;;;;;;1999.90;999.90;;;;;;;15.59;65.53;102037.56;11437994;26;19998;-66
2024/04/20 12:00:30;;;;;;;1999.90;999.90;;;;;;;13.49;72.53;102065.59;11437765;26;20347;-66
2024/04/20 12:05:33;;;;;;;1999.90;999.90;;;;;;;11.71;75.87;102081.41;11436907;26;20412;-66
2024/04/20 12:10:35;;;;;;;1999.90;999.90;;;;;;;9.80;87.04;102085.94;11437178;26;19998;-66
2024/04/20 12:15:38;;;;;;;1999.90;999.90;;;;;;;10.55;88.63;102085.06;11437340;26;20094;-66
2024/04/20 12:20:43;;;;;;;1999.90;999.90;;;;;;;9.79;95.83;102106.91;11437738;26;20013;-66
2024/04/20 12:25:49;;;;;;;1999.90;999.90;;;;;;;9.77;99.04;102088.66;11405044;26;20005;-66
2024/04/20 12:30:52;;;;;;;1999.90;999.90;;;;;;;10.64;97.95;102076.06;11437564;26;19997;-67
2024/04/20 12:35:55;;;;;;;1999.90;999.90;;;;;;;12.31;81.77;102056.19;11404772;26;20009;-67
2024/04/20 12:40:57;;;;;;;1999.90;999.90;;;;;;;12.74;78.34;102038.44;11404459;26;19997;-67
2024/04/20 12:46:00;;;;;;;1999.90;999.90;;;;;;;13.88;77.40;102032.91;11436573;26;19997;-67
2024/04/20 12:51:03;;;;;;;1999.90;999.90;;;;;;;14.22;77.65;102039.03;11435024;26;19998;-67
2024/04/20 12:56:06;;;;;;;1999.90;999.90;;;;;;;12.64;76.98;102043.28;11435378;26;20069;-67
2024/04/20 13:01:08;;;;;;;1999.90;999.90;;;;;;;11.13;77.71;102053.19;11436378;26;19997;-67
2024/04/20 13:06:11;;;;;;;1999.90;999.90;;;;;;;11.14;81.50;102054.03;11436226;26;19998;-66
2024/04/20 13:11:15;;;;;;;1999.90;999.90;;;;;;;11.53;83.20;102048.97;11403838;26;19997;-66
2024/04/20 13:16:18;;;;;;;1999.90;999.90;;;;;;;12.02;83.94;102032.06;11435063;26;20349;-67
2024/04/20 13:21:21;;;;;;;1999.90;999.90;;;;;;;11.31;79.71;102021.91;11435494;26;20005;-66
2024/04/20 13:26:23;;;;;;;1999.90;999.90;;;;;;;10.93;80.00;102040.03;11434993;26;20012;-66
2024/04/20 13:31:45;;;;;;;1999.90;999.90;;;;;;;11.47;81.05;102030.00;11434757;26;19998;-66
2024/04/20 13:36:48;;;;;;;1999.90;999.90;;;;;;;14.21;75.21;102025.03;11434829;26;19997;-66
2024/04/20 13:41:50;;;;;;;1999.90;999.90;;;;;;;13.94;71.31;102016.81;11434615;26;19997;-66
2024/04/20 13:46:53;;;;;;;1999.90;999.90;;;;;;;14.40;70.46;102010.88;11434266;26;20012;-66
2024/04/20 13:51:57;;;;;;;1999.90;999.90;;;;;;;13.34;70.38;102014.56;11434605;26;20005;-66
2024/04/20 13:57:00;;;;;;;1999.90;999.90;;;;;;;11.44;82.14;102030.13;11401982;26;19997;-67
2024/04/20 14:02:02;;;;;;;1999.90;999.90;;;;;;;13.34;79.69;102025.94;11433861;26;20444;-66
2024/04/20 14:07:05;;;;;;;1999.90;999.90;;;;;;;13.17;73.80;102018.84;11434967;26;20408;-66
2024/04/20 14:12:10;;;;;;;1999.90;999.90;;;;;;;12.04;77.50;102015.31;11441595;26;20012;-66
2024/04/20 14:17:13;;;;;;;1999.90;999.90;;;;;;;11.38;80.97;102019.88;11441054;26;20008;-66
2024/04/20 14:22:16;;;;;;;1999.90;999.90;;;;;;;11.43;80.44;102010.91;11441243;26;19997;-66
2024/04/20 14:27:19;;;;;;;1999.90;999.90;;;;;;;11.01;81.60;101997.78;11440752;26;19997;-66
2024/04/20 14:32:21;;;;;;;1999.90;999.90;;;;;;;11.01;82.10;101997.78;11441175;26;20017;-66
2024/04/20 14:37:25;;;;;;;1999.90;999.90;;;;;;;10.66;86.35;102000.00;11440890;26;20050;-67
2024/04/20 14:42:27;;;;;;;1999.90;999.90;;;;;;;10.10;91.18;102012.50;11440826;26;19997;-66
2024/04/20 14:47:29;;;;;;;1999.90;999.90;;;;;;;10.93;96.09;101991.09;11440690;26;20007;-66
2024/04/20 14:52:32;;;;;;;1999.90;999.90;;;;;;;11.90;90.76;101984.41;11440118;26;20069;-66
2024/04/20 14:57:38;;;;;;;1999.90;999.90;;;;;;;11.22;92.92;101982.97;11439852;26;20038;-67
2024/04/20 15:02:40;;;;;;;1999.90;999.90;;;;;;;10.97;91.88;101986.56;11439723;26;20009;-67
2024/04/20 15:07:43;;;;;;;1999.90;999.90;;;;;;;10.12;93.65;101991.50;11439781;26;20011;-66
2024/04/20 15:12:45;;;;;;;1999.90;999.90;;;;;;;8.72;100.00;102010.97;11439699;26;19998;-68
2024/04/20 15:17:48;;;;;;;1999.90;999.90;;;;;;;11.02;100.00;101996.88;11439624;26;20033;-67
2024/04/20 15:22:50;;;;;;;1999.90;999.90;;;;;;;11.13;99.59;101981.56;11439300;26;20011;-67
2024/04/20 15:27:53;;;;;;;1999.90;999.90;;;;;;;10.31;100.00;101982.09;11439380;26;19997;-67
2024/04/20 15:32:55;;;;;;;1999.90;999.90;;;;;;;11.62;100.00;101976.03;11439060;26;20459;-67
2024/04/20 15:37:58;;;;;;;1999.90;999.90;;;;;;;11.78;91.70;101976.22;11438861;26;20021;-67
2024/04/20 15:43:02;;;;;;;1999.90;999.90;;;;;;;12.04;92.33;101972.50;11438811;26;19994;-67
2024/04/20 15:48:06;;;;;;;1999.90;999.90;;;;;;;10.66;94.09;101972.06;11406488;26;20077;-67
2024/04/20 15:53:10;;;;;;;1999.90;999.90;;;;;;;10.78;98.59;101971.59;11406406;26;20009;-67
2024/04/20 15:58:12;;;;;;;1999.90;999.90;;;;;;;10.72;96.94;101984.91;11438085;26;19998;-66
2024/04/20 16:03:15;;;;;;;1999.90;999.90;;;;;;;10.15;99.40;101978.31;11438024;26;20007;-67
2024/04/20 16:08:17;;;;;;;1999.90;999.90;;;;;;;9.98;99.02;101984.16;11438054;26;20375;-67
2024/04/20 16:13:20;;;;;;;1999.90;999.90;;;;;;;10.15;99.33;101983.56;11437503;26;20445;-66
2024/04/20 16:18:22;;;;;;;1999.90;999.90;;;;;;;9.58;92.97;101988.19;11437548;26;20042;-67
2024/04/20 16:23:27;;;;;;;1999.90;999.90;;;;;;;9.27;91.20;101994.44;11364432;26;972980;-66
2024/04/20 16:28:32;;;;;;;1999.90;999.90;;;;;;;9.34;94.36;101998.56;11437474;26;20270;-67
2024/04/20 16:33:35;;;;;;;1999.90;999.90;;;;;;;10.21;92.67;102001.66;11436301;26;20008;-67
2024/04/20 16:38:38;;;;;;;1999.90;999.90;;;;;;;9.67;91.90;101998.34;11404819;26;20453;-67
2024/04/20 16:43:41;;;;;;;1999.90;999.90;;;;;;;9.52;91.04;102009.31;11404650;26;20369;-66
2024/04/20 16:48:43;;;;;;;1999.90;999.90;;;;;;;10.23;89.60;102005.06;11436238;26;19998;-67
2024/04/20 16:53:46;;;;;;;1999.90;999.90;;;;;;;9.67;90.82;102014.03;11436745;26;20010;-67
2024/04/20 16:58:52;;;;;;;1999.90;999.90;;;;;;;9.45;93.92;102027.81;11436324;26;20489;-66
2024/04/20 17:03:54;;;;;;;1999.90;999.90;;;;;;;9.11;96.17;102021.06;11436137;26;20006;-66
2024/04/20 17:08:57;;;;;;;1999.90;999.90;;;;;;;8.91;97.14;102013.00;11403583;26;19998;-66
2024/04/20 17:14:00;;;;;;;1999.90;999.90;;;;;;;8.72;99.39;102016.19;11435919;26;19997;-66
2024/04/20 17:19:02;;;;;;;1999.90;999.90;;;;;;;8.52;98.21;102028.94;11435674;26;20015;-66
2024/04/20 17:24:05;;;;;;;1999.90;999.90;;;;;;;8.70;91.78;102024.94;11435280;26;20008;-66
2024/04/20 17:29:08;;;;;;;1999.90;999.90;;;;;;;8.80;90.08;102023.78;11435174;26;20012;-66
2024/04/20 17:34:11;;;;;;;1999.90;999.90;;;;;;;8.28;90.64;102030.50;11435148;26;20009;-66
2024/04/20 17:39:14;;;;;;;1999.90;999.90;;;;;;;8.49;92.16;102045.56;11435064;26;20005;-66
2024/04/20 17:44:16;;;;;;;1999.90;999.90;;;;;;;7.99;93.74;102039.97;11439694;26;19997;-66
2024/04/20 17:49:19;;;;;;;1999.90;999.90;;;;;;;8.16;95.65;102042.13;11441887;26;19993;-66
2024/04/20 17:54:21;;;;;;;1999.90;999.90;;;;;;;8.06;96.48;102054.53;11442163;26;20009;-66
2024/04/20 17:59:24;;;;;;;1999.90;999.90;;;;;;;8.00;97.98;102052.97;11441901;26;20449;-66
2024/04/20 18:04:26;;;;;;;1999.90;999.90;;;;;;;7.86;99.53;102067.25;11441842;26;20001;-66
2024/04/20 18:09:29;;;;;;;1999.90;999.90;;;;;;;7.72;97.93;102065.84;11441391;26;19998;-66
2024/04/20 18:14:31;;;;;;;1999.90;999.90;;;;;;;7.91;98.95;102079.28;11441462;26;20008;-66
2024/04/20 18:19:34;;;;;;;1999.90;999.90;;;;;;;7.84;100.00;102088.16;11441410;26;20041;-66
2024/04/20 18:24:37;;;;;;;1999.90;999.90;;;;;;;7.63;100.00;102100.84;11441093;26;20003;-66
2024/04/20 18:29:39;;;;;;;1999.90;999.90;;;;;;;7.38;100.00;102095.34;11441039;26;20069;-66
2024/04/20 18:34:42;;;;;;;1999.90;999.90;;;;;;;7.26;100.00;102108.63;11440980;26;20012;-66
2024/04/20 18:39:44;;;;;;;1999.90;999.90;;;;;;;7.25;100.00;102115.59;11440730;26;19998;-66
2024/04/20 18:44:47;;;;;;;1999.90;999.90;;;;;;;6.83;100.00;102136.47;11440372;26;20069;-66
2024/04/20 18:49:50;;;;;;;1999.90;999.90;;;;;;;6.80;100.00;102146.94;11440087;26;20008;-66
2024/04/20 18:54:52;;;;;;;1999.90;999.90;;;;;;;6.68;100.00;102141.97;11439949;26;19997;-66
2024/04/20 18:59:55;;;;;;;1999.90;999.90;;;;;;;6.61;100.00;102149.06;11440077;26;20005;-66
2024/04/20 19:04:57;;;;;;;1999.90;999.90;;;;;;;6.70;100.00;102159.28;11439962;26;19998;-66
2024/04/20 19:10:11;;;;;;;1999.90;999.90;;;;;;;6.50;100.00;102158.78;11439681;26;20001;-65
2024/04/20 19:15:13;;;;;;;1999.90;999.90;;;;;;;6.39;100.00;102172.00;11439787;26;20325;-66
2024/04/20 19:20:16;;;;;;;1999.90;999.90;;;;;;;6.46;100.00;102165.81;11439613;26;20449;-66
2024/04/20 19:25:19;;;;;;;1999.90;999.90;;;;;;;6.60;100.00;102177.69;11439612;26;19997;-66
2024/04/20 19:30:22;;;;;;;1999.90;999.90;;;;;;;6.30;100.00;102187.75;11439224;26;20005;-66
2024/04/20 19:35:26;;;;;;;1999.90;999.90;;;;;;;6.62;100.00;102188.94;11406782;26;20033;-66
2024/04/20 19:40:28;;;;;;;1999.90;999.90;;;;;;;6.59;100.00;102196.78;11438892;26;19993;-66
2024/04/20 19:45:31;;;;;;;1999.90;999.90;;;;;;;6.73;100.00;102194.81;11438681;26;20448;-66
2024/04/20 19:50:35;;;;;;;1999.90;999.90;;;;;;;6.50;100.00;102195.22;11406289;26;20001;-66
2024/04/20 19:55:38;;;;;;;1999.90;999.90;;;;;;;6.64;100.00;102198.44;11438502;26;19997;-66
2024/04/20 20:00:40;;;;;;;1999.90;999.90;;;;;;;6.72;100.00;102187.03;11438403;26;19997;-66
2024/04/20 20:05:43;;;;;;;1999.90;999.90;;;;;;;6.48;100.00;102187.44;11436842;26;20003;-66
2024/04/20 20:10:45;;;;;;;1999.90;999.90;;;;;;;6.53;100.00;102179.56;11405390;26;19998;-66
2024/04/20 20:15:47;;;;;;;1999.90;999.90;;;;;;;6.41;100.00;102178.03;11405674;26;20029;-66
2024/04/20 20:20:50;;;;;;;1999.90;999.90;;;;;;;6.08;100.00;102182.06;11437812;26;20077;-66
2024/04/20 20:25:52;;;;;;;1999.90;999.90;;;;;;;5.97;100.00;102176.19;11437262;26;20029;-66
2024/04/20 20:30:56;;;;;;;1999.90;999.90;;;;;;;6.20;100.00;102179.25;11437490;26;20012;-66
2024/04/20 20:36:00;;;;;;;1999.90;999.90;;;;;;;6.27;100.00;102174.81;11436897;26;20492;-66
2024/04/20 20:41:03;;;;;;;1999.90;999.90;;;;;;;6.25;100.00;102182.63;11274698;21;20026;-64
2024/04/20 20:46:06;;;;;;;1999.90;999.90;;;;;;;6.18;100.00;102182.78;11209181;26;20008;-64
2024/04/20 20:51:10;;;;;;;1999.90;999.90;;;;;;;6.40;100.00;102189.31;11210704;26;20000;-64
2024/04/20 20:56:13;;;;;;;1999.90;999.90;;;;;;;6.30;100.00;102193.84;11210878;26;20000;-64
2024/04/20 21:01:15;;;;;;;1999.90;999.90;;;;;;;6.22;100.00;102192.25;11210647;26;20003;-64
2024/04/20 21:06:18;;;;;;;1999.90;999.90;;;;;;;6.11;100.00;102189.81;11210386;26;20453;-64
2024/04/20 21:11:20;;;;;;;1999.90;999.90;;;;;;;6.12;100.00;102195.00;11209847;26;20365;-64
2024/04/20 21:16:23;;;;;;;1999.90;999.90;;;;;;;5.72;100.00;102182.59;11209627;26;20011;-64
2024/04/20 21:21:29;;;;;;;1999.90;999.90;;;;;;;5.72;100.00;102200.78;11209641;26;20012;-64
2024/04/20 21:26:33;;;;;;;1999.90;999.90;;;;;;;5.67;100.00;102201.75;11209598;26;20007;-64
2024/04/20 21:31:35;;;;;;;1999.90;999.90;;;;;;;5.58;100.00;102213.09;11209393;26;20422;-64
2024/04/20 21:36:38;;;;;;;1999.90;999.90;;;;;;;5.67;100.00;102201.75;11209249;26;20072;-64
2024/04/20 21:41:40;;;;;;;1999.90;999.90;;;;;;;5.56;100.00;102204.47;11208634;26;20000;-64
2024/04/20 21:46:43;;;;;;;1999.90;999.90;;;;;;;5.32;100.00;102198.72;11208716;26;20014;-64
2024/04/20 21:51:45;;;;;;;1999.90;999.90;;;;;;;5.79;100.00;102193.75;11208362;26;20018;-65
2024/04/20 21:56:48;;;;;;;1999.90;999.90;;;;;;;5.65;100.00;102200.88;11208264;26;20011;-64